createdAt,value
2018-11-04T00:02:56.656Z,12.90
2018-11-04T00:05:59.711Z,14.50
2018-11-04T00:09:02.755Z,20.50
2018-11-04T00:12:05.810Z,14.20
2018-11-04T00:15:10.100Z,15.03
2018-11-04T00:18:13.156Z,10.60
2018-11-04T00:21:16.303Z,11.23
2018-11-04T00:24:19.364Z,9.97
2018-11-04T00:27:22.469Z,9.67
2018-11-04T00:30:25.533Z,9.23
2018-11-04T00:33:28.617Z,11.63
2018-11-04T00:36:31.659Z,8.97
2018-11-04T00:39:34.696Z,10.07
2018-11-04T00:42:38.041Z,10.17
2018-11-04T00:45:41.137Z,16.47
2018-11-04T00:48:44.187Z,12.70
2018-11-04T00:51:47.239Z,10.50
2018-11-04T00:54:50.271Z,15.80
2018-11-04T00:57:53.314Z,13.10
2018-11-04T01:00:56.392Z,12.80
2018-11-04T01:03:59.565Z,12.30
2018-11-04T01:07:02.623Z,9.10
2018-11-04T01:10:06.587Z,7.60
2018-11-04T01:13:09.695Z,8.17
2018-11-04T01:16:12.806Z,10.37
2018-11-04T01:19:15.886Z,9.43
2018-11-04T01:22:18.969Z,8.00
2018-11-04T01:25:22.126Z,7.50
2018-11-04T01:28:25.178Z,8.17
2018-11-04T01:31:28.242Z,8.77
2018-11-04T01:34:31.335Z,8.20
2018-11-04T01:37:34.427Z,6.33
2018-11-04T01:40:37.471Z,9.37
2018-11-04T01:43:40.579Z,6.80
2018-11-04T01:46:43.751Z,9.27
2018-11-04T01:49:46.822Z,5.87
2018-11-04T01:52:49.891Z,6.73
2018-11-04T01:55:53.188Z,5.07
2018-11-04T01:58:56.379Z,7.93
2018-11-04T02:01:59.419Z,6.33
2018-11-04T02:05:02.510Z,9.30
2018-11-04T02:08:06.173Z,7.60
2018-11-04T02:11:09.271Z,8.40
2018-11-04T02:14:12.320Z,5.07
2018-11-04T02:17:15.364Z,5.47
2018-11-04T02:20:18.457Z,8.33
2018-11-04T02:23:21.554Z,7.37
2018-11-04T02:26:24.660Z,5.60
2018-11-04T02:29:27.729Z,5.73
2018-11-04T02:32:30.811Z,4.90
2018-11-04T02:35:33.938Z,5.57
2018-11-04T02:38:37.000Z,4.70
2018-11-04T02:41:40.080Z,7.00
2018-11-04T02:44:43.183Z,6.80
2018-11-04T02:47:46.231Z,5.43
2018-11-04T02:50:49.296Z,4.20
2018-11-04T02:53:52.405Z,4.93
2018-11-04T02:56:55.456Z,4.23
2018-11-04T02:59:58.508Z,4.80
2018-11-04T03:03:01.570Z,4.57
2018-11-04T03:06:04.631Z,4.70
2018-11-04T03:09:08.998Z,5.40
2018-11-04T03:12:12.051Z,6.10
2018-11-04T03:15:15.153Z,4.93
2018-11-04T03:18:18.196Z,4.47
2018-11-04T03:21:21.236Z,6.43
2018-11-04T03:24:24.276Z,5.20
2018-11-04T03:27:27.484Z,4.00
2018-11-04T03:30:30.655Z,4.37
2018-11-04T03:33:33.845Z,5.93
2018-11-04T03:36:36.910Z,5.20
2018-11-04T03:39:40.688Z,6.67
2018-11-04T03:42:43.832Z,3.30
2018-11-04T03:45:46.896Z,3.77
2018-11-04T03:48:49.990Z,4.20
2018-11-04T03:51:53.045Z,4.33
2018-11-04T03:54:56.925Z,7.43
2018-11-04T03:58:00.017Z,3.60
2018-11-04T04:01:03.120Z,4.80
2018-11-04T04:04:06.190Z,3.20
2018-11-04T04:07:09.251Z,4.10
2018-11-04T04:10:12.322Z,4.27
2018-11-04T04:13:15.416Z,8.57
2018-11-04T04:16:18.530Z,4.53
2018-11-04T04:19:21.672Z,3.43
2018-11-04T04:22:24.781Z,4.37
2018-11-04T04:25:27.828Z,4.90
2018-11-04T04:28:30.931Z,5.63
2018-11-04T04:31:33.995Z,5.43
2018-11-04T04:34:37.070Z,4.73
2018-11-04T04:37:40.592Z,11.67
2018-11-04T04:40:43.640Z,3.93
2018-11-04T04:43:47.602Z,4.73
2018-11-04T04:46:50.638Z,6.23
2018-11-04T04:49:53.693Z,4.03
2018-11-04T04:52:58.412Z,3.47
2018-11-04T04:56:01.544Z,6.30
2018-11-04T04:59:04.637Z,5.20
2018-11-04T05:02:07.705Z,8.33
2018-11-04T05:05:10.867Z,5.03
2018-11-04T05:08:13.906Z,7.37
2018-11-04T05:11:16.972Z,6.93
2018-11-04T05:14:20.025Z,3.77
2018-11-04T05:17:23.152Z,5.63
2018-11-04T05:20:26.277Z,3.60
2018-11-04T05:23:29.354Z,5.53
2018-11-04T05:26:32.399Z,2.83
2018-11-04T05:29:35.510Z,5.03
2018-11-04T05:32:38.576Z,4.10
2018-11-04T05:35:41.716Z,4.20
2018-11-04T05:38:44.816Z,2.30
2018-11-04T05:41:47.884Z,3.40
2018-11-04T05:44:50.917Z,4.33
2018-11-04T05:47:53.997Z,8.53
2018-11-04T05:50:57.103Z,10.07
2018-11-04T05:54:00.171Z,18.50
2018-11-04T05:57:03.350Z,19.30
2018-11-04T06:00:07.738Z,18.80
2018-11-04T06:03:10.808Z,18.57
2018-11-04T06:06:13.874Z,20.27
2018-11-04T06:09:16.967Z,14.30
2018-11-04T06:12:20.033Z,15.67
2018-11-04T06:15:23.071Z,13.23
2018-11-04T06:18:26.135Z,9.10
2018-11-04T06:21:29.280Z,10.60
2018-11-04T06:24:31.415Z,10.67
2018-11-04T06:27:34.441Z,11.67
2018-11-04T06:30:37.569Z,9.63
2018-11-04T06:33:40.712Z,11.37
2018-11-04T06:36:43.759Z,8.73
2018-11-04T06:39:46.794Z,10.87
2018-11-04T06:42:49.816Z,7.10
2018-11-04T06:45:52.951Z,13.00
2018-11-04T06:48:56.068Z,11.87
2018-11-04T06:51:59.095Z,16.07
2018-11-04T06:55:02.164Z,11.23
2018-11-04T06:58:05.835Z,9.07
2018-11-04T07:01:08.953Z,6.93
2018-11-04T07:04:22.223Z,8.20
2018-11-04T07:07:25.335Z,12.03
2018-11-04T07:10:28.528Z,9.93
2018-11-04T07:13:31.631Z,8.43
2018-11-04T07:16:35.667Z,9.50
2018-11-04T07:19:38.724Z,7.53
2018-11-04T07:22:41.823Z,13.63
2018-11-04T07:25:44.964Z,11.87
2018-11-04T07:28:48.014Z,13.30
2018-11-04T07:31:51.170Z,33.50
2018-11-04T07:34:54.222Z,30.23
2018-11-04T07:37:57.314Z,22.77
2018-11-04T07:41:00.363Z,18.40
2018-11-04T07:44:03.517Z,15.90
2018-11-04T07:47:06.615Z,14.93
2018-11-04T07:50:12.031Z,13.63
2018-11-04T07:53:15.110Z,12.93
2018-11-04T07:56:18.176Z,12.10
2018-11-04T07:59:21.247Z,13.43
2018-11-04T08:02:24.307Z,12.77
2018-11-04T08:05:27.397Z,21.73
2018-11-04T08:08:30.468Z,47.98
2018-11-04T08:11:33.732Z,33.07
2018-11-04T08:14:36.883Z,26.80
2018-11-04T08:17:40.320Z,25.37
2018-11-04T08:20:43.415Z,25.83
2018-11-04T08:23:46.517Z,21.73
2018-11-04T08:26:49.676Z,18.97
2018-11-04T08:29:52.984Z,19.00
2018-11-04T08:32:56.402Z,21.93
2018-11-04T08:35:59.520Z,19.37
2018-11-04T08:39:02.793Z,20.17
2018-11-04T08:42:06.590Z,17.33
2018-11-04T08:45:09.700Z,16.30
2018-11-04T08:48:12.853Z,34.63
2018-11-04T08:51:15.946Z,27.03
2018-11-04T08:54:19.304Z,26.80
2018-11-04T08:57:22.430Z,22.03
2018-11-04T09:00:25.554Z,15.30
2018-11-04T09:03:28.828Z,17.17
2018-11-04T09:06:32.052Z,25.70
2018-11-04T09:09:35.117Z,18.40
2018-11-04T09:12:38.214Z,20.87
2018-11-04T09:15:41.286Z,15.27
2018-11-04T09:18:44.418Z,21.33
2018-11-04T09:21:47.614Z,18.90
2018-11-04T09:24:58.625Z,15.37
2018-11-04T09:28:08.427Z,13.73
2018-11-04T09:31:11.870Z,16.23
2018-11-04T09:34:15.128Z,14.17
2018-11-04T09:37:18.497Z,16.53
2018-11-04T09:40:21.876Z,15.80
2018-11-04T09:43:25.265Z,15.07
2018-11-04T09:46:28.332Z,14.37
2018-11-04T09:49:31.920Z,14.23
2018-11-04T09:52:34.979Z,14.13
2018-11-04T09:55:40.341Z,14.73
2018-11-04T09:58:43.432Z,13.30
2018-11-04T10:01:46.512Z,13.67
2018-11-04T10:04:49.928Z,17.23
2018-11-04T10:07:52.968Z,16.23
2018-11-04T10:10:56.212Z,15.07
2018-11-04T10:13:59.755Z,13.40
2018-11-04T10:17:02.908Z,13.93
2018-11-04T10:20:07.288Z,12.93
2018-11-04T10:23:10.437Z,13.27
2018-11-04T10:26:13.566Z,16.43
2018-11-04T10:29:16.836Z,14.50
2018-11-04T10:32:20.232Z,14.47
2018-11-04T10:35:23.278Z,14.23
2018-11-04T10:38:26.472Z,13.17
2018-11-04T10:41:29.942Z,14.33
2018-11-04T10:44:33.283Z,14.43
2018-11-04T10:47:36.537Z,18.50
2018-11-04T10:50:39.900Z,12.83
2018-11-04T10:53:43.139Z,19.17
2018-11-04T10:56:46.983Z,12.57
2018-11-04T10:59:52.007Z,13.70
2018-11-04T11:02:55.116Z,13.00
2018-11-04T11:05:58.241Z,18.70
2018-11-04T11:09:01.302Z,14.73
2018-11-04T11:12:04.482Z,16.20
2018-11-04T11:15:08.405Z,12.37
2018-11-04T11:18:11.482Z,12.13
2018-11-04T11:21:14.564Z,13.57
2018-11-04T11:24:17.668Z,11.23
2018-11-04T11:27:20.719Z,15.17
2018-11-04T11:30:23.803Z,13.17
2018-11-04T11:33:26.860Z,16.33
2018-11-04T11:36:29.971Z,11.47
2018-11-04T11:39:33.140Z,13.03
2018-11-04T11:42:36.550Z,12.03
2018-11-04T11:45:39.630Z,11.33
2018-11-04T11:48:42.779Z,14.73
2018-11-04T11:51:46.009Z,13.80
2018-11-04T11:54:49.279Z,17.03
2018-11-04T11:57:52.593Z,12.20
2018-11-04T12:00:55.977Z,11.23
2018-11-04T12:03:59.473Z,14.27
2018-11-04T12:07:02.643Z,12.43
2018-11-04T12:10:07.389Z,15.90
2018-11-04T12:13:10.479Z,11.10
2018-11-04T12:16:13.635Z,13.47
2018-11-04T12:19:16.853Z,13.83
2018-11-04T12:22:19.972Z,10.60
2018-11-04T12:25:26.905Z,10.23
2018-11-04T12:28:30.388Z,11.00
2018-11-04T12:31:34.685Z,17.20
2018-11-04T12:34:37.752Z,14.60
2018-11-04T12:37:41.293Z,14.27
2018-11-04T12:40:44.385Z,13.17
2018-11-04T12:43:47.579Z,17.97
2018-11-04T12:46:50.636Z,14.80
2018-11-04T12:49:53.726Z,14.93
2018-11-04T12:52:56.792Z,14.50
2018-11-04T12:55:59.828Z,16.30
2018-11-04T12:59:02.996Z,11.93
2018-11-04T13:02:06.273Z,19.85
2018-11-04T13:05:10.248Z,12.73
2018-11-04T13:08:13.421Z,12.70
2018-11-04T13:11:16.621Z,12.60
2018-11-04T13:14:19.689Z,13.20
2018-11-04T13:17:22.784Z,13.63
2018-11-04T13:20:25.877Z,11.47
2018-11-04T13:23:29.107Z,15.40
2018-11-04T13:26:32.443Z,34.43
2018-11-04T13:29:35.508Z,169.23
2018-11-04T13:32:38.773Z,68.83
2018-11-04T13:35:41.840Z,36.10
2018-11-04T13:38:44.912Z,28.07
2018-11-04T13:41:48.007Z,29.20
2018-11-04T13:44:51.168Z,32.50
2018-11-04T13:47:54.246Z,27.98
2018-11-04T13:50:57.292Z,28.43
2018-11-04T13:54:00.437Z,26.00
2018-11-04T13:57:03.531Z,28.97
2018-11-04T14:00:09.385Z,23.43
2018-11-04T14:03:12.474Z,27.40
2018-11-04T14:06:16.688Z,27.70
2018-11-04T14:09:19.813Z,24.47
2018-11-04T14:12:22.969Z,24.27
2018-11-04T14:15:26.133Z,22.27
2018-11-04T14:18:29.311Z,21.40
2018-11-04T14:21:32.605Z,25.67
2018-11-04T14:24:35.697Z,25.90
2018-11-04T14:27:39.211Z,17.53
2018-11-04T14:30:42.304Z,19.27
2018-11-04T14:33:45.428Z,13.60
2018-11-04T14:36:48.560Z,11.50
2018-11-04T14:39:51.686Z,12.40
2018-11-04T14:42:54.808Z,15.63
2018-11-04T14:45:57.869Z,12.40
2018-11-04T14:49:00.968Z,12.70
2018-11-04T14:52:04.069Z,11.27
2018-11-04T14:55:07.343Z,16.23
2018-11-04T14:58:10.485Z,13.37
2018-11-04T15:01:13.609Z,10.67
2018-11-04T15:04:16.602Z,13.33
2018-11-04T15:07:19.644Z,15.27
2018-11-04T15:10:22.788Z,10.03
2018-11-04T15:13:25.898Z,12.10
2018-11-04T15:16:29.044Z,11.60
2018-11-04T15:19:32.229Z,14.47
2018-11-04T15:22:35.300Z,13.53
2018-11-04T15:25:38.346Z,11.83
2018-11-04T15:28:41.459Z,12.13
2018-11-04T15:31:44.583Z,15.73
2018-11-04T15:34:47.802Z,13.03
2018-11-04T15:37:50.753Z,13.93
2018-11-04T15:40:53.843Z,11.00
2018-11-04T15:43:56.896Z,11.90
2018-11-04T15:46:59.984Z,72.90
2018-11-04T15:50:03.047Z,55.97
2018-11-04T15:53:06.193Z,115.57
2018-11-04T15:56:09.315Z,103.57
2018-11-04T15:59:12.434Z,89.47
2018-11-04T16:02:15.588Z,84.17
2018-11-04T16:05:19.564Z,74.77
2018-11-04T16:08:22.566Z,67.23
2018-11-04T16:11:25.653Z,68.53
2018-11-04T16:14:28.868Z,64.03
2018-11-04T16:17:31.952Z,59.20
2018-11-04T16:20:35.066Z,31.43
2018-11-04T16:23:38.235Z,38.07
2018-11-04T16:26:41.484Z,29.57
2018-11-04T16:29:44.584Z,27.40
2018-11-04T16:32:48.677Z,28.43
2018-11-04T16:35:51.878Z,27.70
2018-11-04T16:38:54.959Z,23.93
2018-11-04T16:41:58.123Z,21.03
2018-11-04T16:45:01.300Z,23.03
2018-11-04T16:48:04.455Z,20.33
2018-11-04T16:51:07.539Z,18.80
2018-11-04T16:54:10.616Z,18.47
2018-11-04T16:57:13.719Z,16.50
2018-11-04T17:00:16.915Z,15.87
2018-11-04T17:03:20.047Z,16.97
2018-11-04T17:06:23.316Z,18.63
2018-11-04T17:09:26.469Z,18.80
2018-11-04T17:12:29.522Z,55.17
2018-11-04T17:15:32.688Z,49.10
2018-11-04T17:18:35.917Z,44.87
2018-11-04T17:21:39.023Z,39.93
2018-11-04T17:24:42.243Z,32.73
2018-11-04T17:27:45.372Z,21.37
2018-11-04T17:30:48.705Z,20.60
2018-11-04T17:33:53.844Z,21.50
2018-11-04T17:36:56.935Z,21.80
2018-11-04T17:40:00.120Z,20.77
2018-11-04T17:43:03.340Z,24.20
2018-11-04T17:46:06.671Z,109.57
2018-11-04T17:49:09.932Z,110.57
2018-11-04T17:52:15.027Z,123.93
2018-11-04T17:55:18.351Z,94.80
2018-11-04T17:58:21.553Z,85.23
2018-11-04T18:01:24.762Z,86.40
2018-11-04T18:04:28.003Z,79.63
2018-11-04T18:07:31.072Z,73.63
2018-11-04T18:10:34.135Z,63.13
2018-11-04T18:13:37.331Z,63.57
2018-11-04T18:16:40.366Z,60.00
2018-11-04T18:19:43.463Z,51.13
2018-11-04T18:22:46.552Z,54.70
2018-11-04T18:25:49.717Z,47.10
2018-11-04T18:28:52.903Z,44.30
2018-11-04T18:31:57.009Z,45.07
2018-11-04T18:35:00.181Z,38.77
2018-11-04T18:38:04.380Z,39.50
2018-11-04T18:41:07.586Z,37.83
2018-11-04T18:44:10.763Z,35.77
2018-11-04T18:47:13.941Z,32.97
2018-11-04T18:50:18.165Z,33.30
2018-11-04T18:53:21.320Z,32.77
2018-11-04T18:56:24.463Z,30.83
2018-11-04T18:59:27.646Z,28.53
2018-11-04T19:02:30.856Z,28.83
2018-11-04T19:05:34.366Z,28.10
2018-11-04T19:08:37.561Z,26.03
2018-11-04T19:11:40.740Z,23.83
2018-11-04T19:14:43.772Z,22.57
2018-11-04T19:17:46.963Z,23.70
2018-11-04T19:20:50.137Z,22.80
2018-11-04T19:23:54.276Z,23.17
2018-11-04T19:26:57.901Z,18.10
2018-11-04T19:30:01.067Z,21.67
2018-11-04T19:33:04.256Z,23.17
2018-11-04T19:36:07.466Z,19.60
2018-11-04T19:39:11.896Z,18.30
2018-11-04T19:42:14.991Z,19.97
2018-11-04T19:45:18.188Z,19.07
2018-11-04T19:48:21.506Z,19.27
2018-11-04T19:51:24.695Z,17.43
2018-11-04T19:54:27.865Z,21.67
2018-11-04T19:57:31.379Z,20.13
2018-11-04T20:00:34.608Z,20.20
2018-11-04T20:03:37.759Z,29.05
2018-11-04T20:06:40.981Z,46.20
2018-11-04T20:09:44.138Z,58.90
2018-11-04T20:12:53.752Z,67.37
2018-11-04T20:15:56.897Z,53.57
2018-11-04T20:19:05.555Z,48.17
2018-11-04T20:22:08.691Z,48.30
2018-11-04T20:25:17.295Z,49.93
2018-11-04T20:28:27.953Z,50.73
2018-11-04T20:31:36.576Z,49.33
2018-11-04T20:34:39.713Z,52.43
2018-11-04T20:37:43.203Z,52.17
2018-11-04T20:40:51.958Z,53.83
2018-11-04T20:43:55.290Z,36.83
2018-11-04T20:46:58.735Z,37.30
2018-11-04T20:50:07.251Z,33.63
2018-11-04T20:53:10.591Z,33.40
2018-11-04T20:56:19.113Z,31.80
2018-11-04T20:59:22.318Z,31.13
2018-11-04T21:02:25.749Z,31.33
2018-11-04T21:05:28.673Z,29.37
2018-11-04T21:08:32.108Z,27.00
2018-11-04T21:11:35.200Z,31.87
2018-11-04T21:14:38.353Z,28.50
2018-11-04T21:17:41.464Z,27.00
2018-11-04T21:20:44.644Z,31.43
2018-11-04T21:23:47.953Z,30.90
2018-11-04T21:26:51.485Z,29.40
2018-11-04T21:29:54.711Z,32.30
2018-11-04T21:32:58.189Z,23.75
2018-11-04T21:36:01.332Z,28.73
2018-11-04T21:39:05.807Z,28.23
2018-11-04T21:42:09.021Z,29.97
2018-11-04T21:45:13.191Z,26.43
2018-11-04T21:48:16.378Z,25.53
2018-11-04T21:51:19.490Z,37.67
2018-11-04T21:54:22.664Z,99.60
2018-11-04T21:57:25.867Z,100.13
2018-11-04T22:00:29.020Z,83.73
2018-11-04T22:03:32.341Z,69.80
2018-11-04T22:06:35.396Z,64.97
2018-11-04T22:09:38.536Z,62.53
2018-11-04T22:12:42.227Z,57.73
2018-11-04T22:15:45.397Z,54.53
2018-11-04T22:18:48.619Z,54.13
2018-11-04T22:21:51.812Z,52.73
2018-11-04T22:24:54.985Z,47.93
2018-11-04T22:27:58.128Z,48.97
2018-11-04T22:31:01.308Z,46.50
2018-11-04T22:34:04.520Z,38.47
2018-11-04T22:37:07.827Z,43.57
2018-11-04T22:40:11.788Z,37.97
2018-11-04T22:43:14.950Z,36.70
2018-11-04T22:46:18.054Z,34.67
2018-11-04T22:49:21.124Z,33.10
2018-11-04T22:52:24.255Z,34.70
2018-11-04T22:55:27.395Z,38.90
2018-11-04T22:58:30.482Z,34.53
2018-11-04T23:01:33.871Z,33.43
2018-11-04T23:04:42.128Z,31.80
2018-11-04T23:07:45.631Z,30.73
2018-11-04T23:10:48.774Z,30.30
2018-11-04T23:13:51.927Z,30.80
2018-11-04T23:16:55.085Z,30.87
2018-11-04T23:19:58.154Z,29.07
2018-11-04T23:23:02.540Z,31.40
2018-11-04T23:26:07.047Z,30.13
2018-11-04T23:29:10.265Z,28.73
2018-11-04T23:32:13.394Z,30.00
2018-11-04T23:35:19.133Z,27.47
2018-11-04T23:38:22.286Z,24.80
2018-11-04T23:41:25.537Z,28.90
2018-11-04T23:44:28.718Z,37.93
2018-11-04T23:47:32.134Z,28.90
2018-11-04T23:50:35.267Z,24.90
2018-11-04T23:53:38.792Z,28.93
2018-11-04T23:56:42.131Z,23.47
2018-11-04T23:59:45.301Z,24.60
